createdAt,value
2023-03-11T00:00:49.548Z,0.85
2023-03-11T00:03:20.904Z,0.80
2023-03-11T00:05:49.915Z,0.28
2023-03-11T00:08:20.548Z,0.38
2023-03-11T00:10:52.519Z,0.35
2023-03-11T00:13:21.195Z,0.55
2023-03-11T00:15:51.515Z,0.50
2023-03-11T00:18:21.159Z,0.52
2023-03-11T00:20:49.772Z,0.80
2023-03-11T00:23:18.019Z,0.70
2023-03-11T00:25:48.064Z,0.82
2023-03-11T00:28:17.445Z,0.77
2023-03-11T00:30:47.211Z,0.73
2023-03-11T00:33:16.853Z,1.05
2023-03-11T00:35:46.510Z,1.15
2023-03-11T00:38:16.612Z,1.13
2023-03-11T00:40:46.978Z,1.10
2023-03-11T00:43:15.572Z,1.33
2023-03-11T00:45:44.263Z,1.42
2023-03-11T00:48:14.007Z,1.23
2023-03-11T00:50:42.434Z,1.25
2023-03-11T00:53:12.759Z,1.80
2023-03-11T00:55:41.670Z,1.45
2023-03-11T00:58:13.819Z,1.70
2023-03-11T01:00:51.759Z,1.17
2023-03-11T01:03:20.054Z,1.73
2023-03-11T01:05:49.106Z,1.67
2023-03-11T01:08:18.822Z,1.63
2023-03-11T01:10:47.079Z,2.05
2023-03-11T01:13:15.414Z,2.75
2023-03-11T01:15:43.731Z,1.90
2023-03-11T01:18:12.121Z,2.05
2023-03-11T01:20:40.670Z,3.45
2023-03-11T01:23:09.583Z,2.42
2023-03-11T01:25:40.308Z,1.75
2023-03-11T01:28:09.388Z,2.70
2023-03-11T01:30:40.140Z,2.20
2023-03-11T01:33:10.311Z,3.25
2023-03-11T01:35:42.703Z,2.45
2023-03-11T01:38:11.336Z,2.47
2023-03-11T01:40:44.377Z,2.35
2023-03-11T01:43:41.768Z,1.77
2023-03-11T01:46:17.172Z,2.35
2023-03-11T01:48:48.957Z,1.98
2023-03-11T01:51:29.549Z,3.50
2023-03-11T01:54:00.724Z,2.42
2023-03-11T01:56:31.194Z,2.15
2023-03-11T01:59:00.186Z,2.08
2023-03-11T02:01:29.698Z,1.90
2023-03-11T02:04:00.967Z,3.15
2023-03-11T02:06:30.769Z,3.42
2023-03-11T02:09:00.741Z,2.95
2023-03-11T02:11:32.609Z,1.80
2023-03-11T02:14:05.542Z,1.83
2023-03-11T02:16:34.177Z,3.83
2023-03-11T02:19:17.330Z,3.55
2023-03-11T02:21:46.180Z,3.75
2023-03-11T02:24:20.064Z,2.15
2023-03-11T02:26:56.455Z,2.45
2023-03-11T02:29:27.809Z,3.63
2023-03-11T02:31:58.006Z,3.70
2023-03-11T02:34:28.901Z,3.22
2023-03-11T02:36:59.180Z,3.15
2023-03-11T02:39:32.384Z,3.20
2023-03-11T02:42:06.873Z,3.17
2023-03-11T02:44:35.935Z,3.63
2023-03-11T02:47:04.320Z,3.90
2023-03-11T02:49:33.506Z,2.22
2023-03-11T02:52:01.906Z,3.78
2023-03-11T02:54:31.409Z,2.50
2023-03-11T02:57:00.330Z,3.17
2023-03-11T02:59:30.683Z,3.28
2023-03-11T03:02:01.501Z,4.60
2023-03-11T03:04:30.471Z,3.08
2023-03-11T03:07:00.752Z,2.92
2023-03-11T03:09:29.001Z,2.17
2023-03-11T03:11:57.627Z,3.63
2023-03-11T03:14:26.131Z,4.20
2023-03-11T03:16:55.927Z,4.03
2023-03-11T03:19:24.381Z,4.55
2023-03-11T03:21:53.545Z,4.43
2023-03-11T03:24:23.474Z,3.33
2023-03-11T03:26:52.045Z,3.55
2023-03-11T03:29:20.577Z,4.47
2023-03-11T03:31:50.540Z,3.92
2023-03-11T03:34:20.128Z,5.05
2023-03-11T03:36:48.734Z,4.10
2023-03-11T03:39:20.008Z,3.50
2023-03-11T03:41:50.292Z,3.55
2023-03-11T03:44:18.898Z,3.85
2023-03-11T03:46:48.860Z,4.15
2023-03-11T03:49:17.152Z,3.65
2023-03-11T03:51:47.874Z,2.78
2023-03-11T03:54:26.698Z,4.82
2023-03-11T03:56:55.294Z,5.05
2023-03-11T03:59:23.642Z,5.10
2023-03-11T04:01:56.085Z,4.22
2023-03-11T04:04:25.648Z,5.03
2023-03-11T04:06:56.186Z,5.20
2023-03-11T04:09:25.227Z,5.05
2023-03-11T04:11:53.731Z,4.63
2023-03-11T04:14:22.361Z,4.82
2023-03-11T04:16:57.830Z,6.32
2023-03-11T04:19:26.610Z,4.25
2023-03-11T04:21:56.623Z,3.70
2023-03-11T04:24:26.699Z,5.13
2023-03-11T04:26:55.941Z,5.32
2023-03-11T04:29:24.458Z,2.55
2023-03-11T04:31:54.985Z,3.83
2023-03-11T04:34:23.620Z,5.07
2023-03-11T04:36:53.885Z,4.15
2023-03-11T04:39:26.842Z,4.80
2023-03-11T04:41:56.211Z,4.00
2023-03-11T04:44:27.396Z,3.53
2023-03-11T04:46:56.954Z,4.55
2023-03-11T04:49:25.494Z,4.22
2023-03-11T04:51:54.316Z,4.28
2023-03-11T04:54:26.073Z,2.63
2023-03-11T04:56:55.036Z,3.40
2023-03-11T04:59:24.969Z,4.50
2023-03-11T05:01:54.063Z,5.00
2023-03-11T05:04:23.061Z,4.32
2023-03-11T05:06:52.566Z,4.95
2023-03-11T05:09:22.835Z,5.28
2023-03-11T05:11:52.598Z,4.50
2023-03-11T05:14:22.688Z,3.97
2023-03-11T05:16:52.149Z,5.47
2023-03-11T05:19:34.791Z,6.80
2023-03-11T05:22:09.495Z,5.70
2023-03-11T05:24:38.819Z,4.82
2023-03-11T05:27:08.524Z,5.45
2023-03-11T05:29:38.953Z,5.85
2023-03-11T05:32:10.390Z,5.68
2023-03-11T05:34:39.233Z,5.43
2023-03-11T05:37:08.789Z,7.18
2023-03-11T05:39:38.256Z,7.00
2023-03-11T05:42:09.177Z,6.03
2023-03-11T05:44:38.137Z,5.63
2023-03-11T05:47:06.748Z,6.38
2023-03-11T05:49:35.754Z,6.50
2023-03-11T05:52:04.286Z,5.00
2023-03-11T05:54:34.052Z,6.30
2023-03-11T05:57:02.547Z,6.18
2023-03-11T05:59:35.452Z,5.03
2023-03-11T06:02:06.148Z,5.18
2023-03-11T06:04:34.703Z,6.10
2023-03-11T06:07:04.816Z,5.78
2023-03-11T06:09:37.153Z,4.97
2023-03-11T06:12:08.992Z,4.18
2023-03-11T06:14:52.172Z,5.30
2023-03-11T06:17:20.944Z,4.93
2023-03-11T06:19:49.951Z,4.57
2023-03-11T06:22:18.415Z,3.75
2023-03-11T06:24:47.332Z,3.90
2023-03-11T06:27:16.094Z,3.35
2023-03-11T06:29:44.572Z,4.10
2023-03-11T06:32:15.158Z,4.53
2023-03-11T06:34:43.698Z,4.38
2023-03-11T06:37:12.705Z,3.00
2023-03-11T06:39:42.105Z,3.40
2023-03-11T06:42:14.339Z,5.68
2023-03-11T06:44:44.909Z,4.63
2023-03-11T06:47:15.366Z,4.35
2023-03-11T06:49:44.225Z,4.03
2023-03-11T06:52:12.539Z,4.55
2023-03-11T06:54:41.098Z,4.00
2023-03-11T06:57:10.592Z,4.70
2023-03-11T06:59:40.053Z,3.92
2023-03-11T07:02:14.495Z,4.47
2023-03-11T07:04:45.986Z,3.08
2023-03-11T07:07:14.377Z,4.53
2023-03-11T07:09:42.925Z,3.67
2023-03-11T07:12:15.313Z,3.45
2023-03-11T07:14:44.107Z,3.90
2023-03-11T07:17:12.617Z,3.55
2023-03-11T07:19:52.353Z,4.15
2023-03-11T07:22:20.802Z,4.18
2023-03-11T07:24:50.500Z,2.92
2023-03-11T07:27:18.978Z,3.67
2023-03-11T07:29:47.839Z,4.07
2023-03-11T07:32:16.562Z,3.58
2023-03-11T07:34:45.018Z,3.40
2023-03-11T07:37:15.427Z,2.92
2023-03-11T07:39:43.996Z,3.10
2023-03-11T07:42:12.458Z,4.05
2023-03-11T07:44:41.288Z,3.10
2023-03-11T07:47:09.754Z,3.30
2023-03-11T07:49:42.250Z,4.95
2023-03-11T07:52:10.787Z,3.20
2023-03-11T07:54:40.642Z,4.07
2023-03-11T07:57:13.276Z,3.83
2023-03-11T07:59:42.263Z,4.57
2023-03-11T08:02:11.970Z,3.85
2023-03-11T08:04:40.719Z,4.15
2023-03-11T08:07:09.119Z,3.88
2023-03-11T08:09:37.943Z,3.67
2023-03-11T08:12:08.711Z,3.97
2023-03-11T08:14:37.065Z,4.22
2023-03-11T08:17:05.855Z,3.60
2023-03-11T08:19:34.651Z,3.22
2023-03-11T08:22:04.098Z,3.65
2023-03-11T08:24:32.496Z,4.10
2023-03-11T08:27:00.999Z,5.28
2023-03-11T08:29:31.119Z,4.05
2023-03-11T08:31:59.473Z,4.60
2023-03-11T08:34:27.819Z,3.42
2023-03-11T08:36:56.639Z,3.40
2023-03-11T08:39:25.683Z,3.65
2023-03-11T08:41:54.023Z,2.88
2023-03-11T08:44:22.690Z,2.78
2023-03-11T08:46:52.568Z,2.60
2023-03-11T08:49:21.004Z,2.70
2023-03-11T08:51:49.273Z,2.40
2023-03-11T08:54:17.613Z,1.95
2023-03-11T08:56:47.799Z,2.20
2023-03-11T08:59:16.840Z,3.08
2023-03-11T09:01:45.156Z,2.60
2023-03-11T09:04:15.610Z,3.08
2023-03-11T09:06:45.117Z,3.95
2023-03-11T09:09:14.360Z,2.28
2023-03-11T09:11:42.697Z,4.03
2023-03-11T09:14:11.289Z,2.60
2023-03-11T09:16:39.677Z,2.85
2023-03-11T09:19:08.233Z,3.85
2023-03-11T09:21:38.637Z,2.80
2023-03-11T09:24:10.336Z,2.45
2023-03-11T09:26:38.866Z,2.85
2023-03-11T09:29:07.306Z,3.72
2023-03-11T09:31:35.597Z,2.75
2023-03-11T09:34:04.420Z,2.83
2023-03-11T09:36:33.276Z,3.25
2023-03-11T09:39:03.814Z,2.47
2023-03-11T09:41:55.294Z,3.25
2023-03-11T09:44:30.242Z,3.03
2023-03-11T09:47:19.058Z,2.88
2023-03-11T09:50:15.222Z,3.33
2023-03-11T09:52:56.602Z,2.80
2023-03-11T09:55:34.187Z,3.08
2023-03-11T09:58:08.657Z,3.45
2023-03-11T10:00:37.814Z,2.88
2023-03-11T10:03:14.189Z,3.08
2023-03-11T10:05:45.268Z,2.45
2023-03-11T10:08:31.571Z,2.88
2023-03-11T10:11:12.219Z,3.03
2023-03-11T10:13:48.016Z,2.47
2023-03-11T10:16:26.161Z,2.97
2023-03-11T10:19:03.500Z,2.53
2023-03-11T10:21:43.108Z,3.17
2023-03-11T10:24:24.967Z,2.53
2023-03-11T10:26:59.867Z,2.92
2023-03-11T10:32:21.424Z,2.47
2023-03-11T10:34:55.154Z,2.95
2023-03-11T10:37:33.269Z,2.40
2023-03-11T10:40:24.085Z,2.97
2023-03-11T10:42:57.337Z,2.20
2023-03-11T10:45:27.007Z,2.75
2023-03-11T10:47:57.847Z,2.70
2023-03-11T10:50:26.177Z,3.20
2023-03-11T10:53:07.829Z,3.28
2023-03-11T10:55:46.010Z,3.33
2023-03-11T10:58:17.835Z,2.80
2023-03-11T11:00:47.486Z,2.90
2023-03-11T11:03:24.858Z,2.83
2023-03-11T11:06:02.736Z,3.53
2023-03-11T11:08:31.289Z,3.38
2023-03-11T11:11:01.436Z,3.47
2023-03-11T11:13:33.177Z,2.47
2023-03-11T11:16:04.503Z,2.40
2023-03-11T11:18:35.530Z,3.28
2023-03-11T11:21:07.305Z,3.20
2023-03-11T11:23:41.648Z,2.90
2023-03-11T11:26:19.007Z,2.75
2023-03-11T11:29:08.453Z,2.72
2023-03-11T11:31:38.930Z,2.78
2023-03-11T11:34:28.960Z,3.67
2023-03-11T11:36:59.740Z,3.33
2023-03-11T11:39:30.016Z,2.30
2023-03-11T11:41:59.001Z,2.88
2023-03-11T11:44:34.551Z,3.25
2023-03-11T11:47:10.710Z,3.10
2023-03-11T11:49:45.130Z,3.45
2023-03-11T11:52:16.697Z,2.92
2023-03-11T11:54:52.313Z,2.78
2023-03-11T11:57:23.786Z,3.00
2023-03-11T11:59:54.216Z,3.22
2023-03-11T12:02:41.103Z,3.50
2023-03-11T12:05:14.067Z,3.00
2023-03-11T12:07:58.406Z,2.80
2023-03-11T12:10:30.470Z,3.15
2023-03-11T12:13:31.917Z,3.80
2023-03-11T12:16:06.641Z,3.03
2023-03-11T12:18:41.004Z,2.83
2023-03-11T12:21:23.781Z,3.10
2023-03-11T12:24:05.408Z,2.33
2023-03-11T12:26:37.802Z,3.00
2023-03-11T12:29:14.966Z,2.75
2023-03-11T12:31:47.230Z,2.80
2023-03-11T12:34:19.480Z,2.55
2023-03-11T12:36:49.240Z,2.65
2023-03-11T12:39:23.958Z,2.90
2023-03-11T12:42:17.031Z,2.15
2023-03-11T12:44:47.111Z,2.67
2023-03-11T12:47:22.413Z,3.13
2023-03-11T12:49:55.201Z,2.40
2023-03-11T12:52:26.638Z,2.20
2023-03-11T12:55:38.155Z,2.63
2023-03-11T12:58:33.209Z,2.63
2023-03-11T13:01:24.359Z,2.78
2023-03-11T13:04:02.818Z,2.70
2023-03-11T13:07:07.579Z,2.95
2023-03-11T13:09:36.032Z,2.75
2023-03-11T13:12:04.831Z,2.95
2023-03-11T13:14:34.560Z,3.05
2023-03-11T13:17:25.914Z,3.05
2023-03-11T13:19:57.134Z,4.05
2023-03-11T13:23:16.052Z,3.67
2023-03-11T13:25:45.861Z,3.05
2023-03-11T13:28:32.684Z,3.08
2023-03-11T13:31:23.823Z,3.42
2023-03-11T13:33:54.433Z,2.92
2023-03-11T13:36:43.026Z,2.42
2023-03-11T13:39:44.750Z,2.67
2023-03-11T13:42:23.438Z,3.25
2023-03-11T13:44:52.669Z,2.65
2023-03-11T13:47:22.346Z,2.22
2023-03-11T13:49:55.040Z,3.17
2023-03-11T13:52:31.575Z,2.85
2023-03-11T13:55:04.192Z,2.60
2023-03-11T13:57:34.085Z,2.13
2023-03-11T14:00:17.139Z,2.17
2023-03-11T14:02:51.035Z,2.45
2023-03-11T14:05:23.721Z,2.00
2023-03-11T14:07:53.700Z,2.75
2023-03-11T14:10:25.978Z,2.67
2023-03-11T14:13:06.781Z,2.15
2023-03-11T14:15:45.026Z,3.20
2023-03-11T14:18:32.680Z,2.55
2023-03-11T14:21:01.817Z,2.67
2023-03-11T14:23:35.996Z,1.92
2023-03-11T14:26:08.827Z,2.47
2023-03-11T14:28:45.161Z,2.75
2023-03-11T14:31:25.599Z,2.50
2023-03-11T14:34:04.617Z,2.25
2023-03-11T14:36:44.336Z,1.80
2023-03-11T14:39:31.456Z,2.10
2023-03-11T14:42:13.772Z,2.00
2023-03-11T14:44:44.758Z,1.45
2023-03-11T14:47:19.897Z,1.23
2023-03-11T14:49:50.944Z,1.17
2023-03-11T14:52:22.799Z,2.00
2023-03-11T14:54:55.176Z,1.67
2023-03-11T14:57:37.847Z,1.08
2023-03-11T15:00:14.053Z,1.33
2023-03-11T15:02:47.318Z,1.60
2023-03-11T15:05:22.270Z,1.52
2023-03-11T15:07:58.407Z,2.00
2023-03-11T15:10:28.362Z,1.85
2023-03-11T15:13:07.794Z,1.10
2023-03-11T15:15:36.247Z,1.73
2023-03-11T15:18:04.643Z,1.65
2023-03-11T15:20:35.724Z,1.50
2023-03-11T15:23:06.045Z,1.50
2023-03-11T15:25:38.760Z,1.15
2023-03-11T15:28:24.236Z,1.13
2023-03-11T15:30:53.408Z,1.35
2023-03-11T15:33:24.106Z,1.25
2023-03-11T15:35:52.797Z,1.33
2023-03-11T15:38:25.497Z,1.50
2023-03-11T15:41:01.047Z,1.35
2023-03-11T15:43:32.949Z,1.15
2023-03-11T15:46:04.453Z,1.30
2023-03-11T15:48:32.801Z,1.48
2023-03-11T15:51:02.017Z,2.00
2023-03-11T15:53:31.485Z,2.03
2023-03-11T15:56:11.514Z,1.20
2023-03-11T15:58:40.372Z,1.75
2023-03-11T16:01:08.560Z,0.70
2023-03-11T16:03:38.916Z,1.90
2023-03-11T16:06:08.006Z,1.52
2023-03-11T16:08:36.480Z,2.30
2023-03-11T16:11:07.279Z,1.33
2023-03-11T16:13:35.850Z,1.58
2023-03-11T16:16:04.965Z,1.35
2023-03-11T16:18:35.764Z,1.20
2023-03-11T16:21:10.021Z,1.20
2023-03-11T16:23:51.007Z,1.50
2023-03-11T16:26:23.503Z,1.88
2023-03-11T16:28:52.205Z,0.93
2023-03-11T16:31:20.838Z,1.33
2023-03-11T16:33:49.045Z,1.17
2023-03-11T16:36:17.257Z,1.75
2023-03-11T16:38:49.965Z,3.30
2023-03-11T16:41:18.757Z,2.42
2023-03-11T16:43:48.846Z,2.03
2023-03-11T16:46:17.183Z,1.27
2023-03-11T16:48:45.713Z,1.00
2023-03-11T16:51:13.878Z,1.73
2023-03-11T16:53:42.114Z,2.85
2023-03-11T16:56:10.800Z,1.50
2023-03-11T16:58:39.321Z,1.60
2023-03-11T17:01:08.978Z,1.42
2023-03-11T17:03:42.619Z,1.63
2023-03-11T17:06:11.553Z,1.40
2023-03-11T17:08:39.966Z,1.10
2023-03-11T17:11:15.524Z,1.55
2023-03-11T17:13:44.076Z,1.40
2023-03-11T17:16:15.130Z,1.63
2023-03-11T17:18:43.760Z,1.95
2023-03-11T17:21:14.658Z,2.35
2023-03-11T17:23:44.070Z,2.30
2023-03-11T17:26:14.514Z,1.67
2023-03-11T17:28:43.324Z,1.75
2023-03-11T17:31:17.311Z,2.20
2023-03-11T17:33:46.227Z,1.52
2023-03-11T17:36:16.285Z,2.20
2023-03-11T17:38:45.098Z,1.90
2023-03-11T17:41:15.976Z,2.55
2023-03-11T17:43:45.472Z,2.72
2023-03-11T17:46:16.950Z,3.72
2023-03-11T17:48:47.078Z,2.88
2023-03-11T17:51:18.240Z,3.05
2023-03-11T17:53:48.148Z,2.50
2023-03-11T17:56:18.909Z,1.83
2023-03-11T17:58:47.574Z,2.15
2023-03-11T18:01:19.238Z,1.50
2023-03-11T18:03:47.570Z,1.27
2023-03-11T18:06:16.144Z,1.75
2023-03-11T18:08:44.442Z,1.48
2023-03-11T18:11:18.216Z,2.25
2023-03-11T18:13:47.535Z,2.30
2023-03-11T18:16:19.690Z,2.13
2023-03-11T18:18:48.314Z,2.33
2023-03-11T18:21:19.078Z,1.85
2023-03-11T18:23:47.412Z,2.22
2023-03-11T18:26:18.332Z,2.70
2023-03-11T18:28:46.709Z,2.17
2023-03-11T18:31:17.806Z,2.30
2023-03-11T18:33:49.509Z,2.30
2023-03-11T18:36:19.805Z,3.58
2023-03-11T18:38:48.910Z,2.33
2023-03-11T18:41:17.707Z,2.22
2023-03-11T18:43:46.129Z,2.78
2023-03-11T18:46:17.418Z,1.70
2023-03-11T18:48:46.503Z,3.00
2023-03-11T18:51:15.371Z,2.92
2023-03-11T18:53:43.607Z,2.85
2023-03-11T18:56:14.480Z,4.00
2023-03-11T18:58:42.796Z,3.88
2023-03-11T19:01:13.993Z,2.92
2023-03-11T19:03:45.091Z,3.35
2023-03-11T19:06:14.685Z,3.75
2023-03-11T19:08:43.430Z,3.28
2023-03-11T19:11:14.214Z,2.55
2023-03-11T19:13:49.680Z,2.83
2023-03-11T19:16:20.652Z,3.75
2023-03-11T19:18:50.322Z,3.38
2023-03-11T19:21:19.709Z,3.25
2023-03-11T19:23:49.943Z,3.65
2023-03-11T19:26:18.662Z,4.13
2023-03-11T19:28:46.895Z,3.50
2023-03-11T19:31:15.143Z,3.28
2023-03-11T19:33:45.559Z,3.35
2023-03-11T19:36:15.153Z,2.95
2023-03-11T19:38:43.422Z,3.85
2023-03-11T19:41:14.465Z,3.65
2023-03-11T19:43:43.537Z,3.35
2023-03-11T19:46:15.143Z,4.03
2023-03-11T19:48:43.506Z,3.65
2023-03-11T19:51:12.864Z,3.38
2023-03-11T19:53:42.755Z,3.92
2023-03-11T19:56:12.020Z,3.90
2023-03-11T19:58:42.345Z,3.78
2023-03-11T20:01:17.714Z,3.45
2023-03-11T20:03:45.965Z,3.40
2023-03-11T20:06:16.665Z,3.80
2023-03-11T20:08:46.531Z,4.20
2023-03-11T20:11:15.179Z,3.70
2023-03-11T20:13:44.150Z,4.35
2023-03-11T20:16:15.141Z,4.28
2023-03-11T20:18:45.943Z,4.43
2023-03-11T20:21:14.604Z,3.50
2023-03-11T20:23:43.279Z,3.20
2023-03-11T20:26:16.033Z,3.35
2023-03-11T20:28:44.993Z,3.30
2023-03-11T20:31:16.011Z,3.10
2023-03-11T20:33:45.023Z,3.55
2023-03-11T20:36:15.191Z,3.45
2023-03-11T20:38:44.040Z,3.28
2023-03-11T20:41:13.579Z,3.55
2023-03-11T20:43:42.891Z,3.28
2023-03-11T20:46:11.888Z,3.78
2023-03-11T20:48:40.800Z,3.55
2023-03-11T20:51:10.787Z,3.08
2023-03-11T20:53:40.090Z,3.47
2023-03-11T20:56:10.165Z,2.72
2023-03-11T20:58:40.356Z,2.15
2023-03-11T21:01:12.912Z,2.55
2023-03-11T21:03:41.827Z,3.35
2023-03-11T21:06:18.032Z,3.15
2023-03-11T21:08:47.020Z,2.50
2023-03-11T21:11:16.054Z,3.30
2023-03-11T21:13:46.173Z,3.72
2023-03-11T21:16:14.612Z,3.63
2023-03-11T21:18:44.349Z,3.40
2023-03-11T21:21:13.480Z,2.78
2023-03-11T21:23:44.333Z,2.28
2023-03-11T21:26:13.633Z,2.35
2023-03-11T21:28:44.256Z,2.13
2023-03-11T21:31:16.460Z,2.58
2023-03-11T21:33:45.854Z,2.65
2023-03-11T21:36:15.557Z,2.95
2023-03-11T21:38:43.955Z,2.42
2023-03-11T21:41:14.082Z,2.70
2023-03-11T21:43:43.199Z,2.30
2023-03-11T21:46:14.449Z,2.40
2023-03-11T21:48:43.153Z,2.20
2023-03-11T21:51:11.439Z,1.88
2023-03-11T21:53:40.120Z,2.63
2023-03-11T21:56:09.959Z,2.53
2023-03-11T21:58:38.551Z,1.90
2023-03-11T22:01:07.682Z,2.67
2023-03-11T22:03:37.877Z,2.33
2023-03-11T22:06:09.468Z,2.38
2023-03-11T22:08:38.282Z,2.80
2023-03-11T22:11:09.673Z,1.75
2023-03-11T22:13:38.163Z,2.22
2023-03-11T22:16:08.434Z,2.03
2023-03-11T22:18:38.227Z,1.75
2023-03-11T22:21:08.696Z,1.85
2023-03-11T22:23:38.192Z,3.30
2023-03-11T22:26:06.830Z,1.88
2023-03-11T22:28:35.898Z,2.15
2023-03-11T22:31:08.367Z,2.25
2023-03-11T22:33:38.652Z,2.08
2023-03-11T22:36:09.362Z,1.98
2023-03-11T22:38:41.842Z,2.00
2023-03-11T22:41:10.287Z,2.00
2023-03-11T22:43:40.034Z,2.20
2023-03-11T22:46:09.207Z,2.05
2023-03-11T22:48:38.966Z,1.75
2023-03-11T22:51:07.537Z,2.80
2023-03-11T22:53:35.853Z,2.33
2023-03-11T22:56:09.105Z,2.75
2023-03-11T22:58:37.374Z,1.88
2023-03-11T23:01:06.587Z,2.45
2023-03-11T23:03:36.024Z,2.67
2023-03-11T23:06:08.421Z,1.92
2023-03-11T23:08:37.503Z,1.65
2023-03-11T23:11:07.579Z,1.80
2023-03-11T23:13:36.215Z,1.63
2023-03-11T23:16:07.319Z,2.10
2023-03-11T23:18:35.962Z,2.63
2023-03-11T23:21:05.986Z,1.75
2023-03-11T23:23:34.600Z,1.90
2023-03-11T23:26:09.052Z,1.58
2023-03-11T23:28:37.481Z,2.38
2023-03-11T23:31:06.125Z,1.65
2023-03-11T23:33:34.538Z,2.17
2023-03-11T23:36:03.466Z,1.92
2023-03-11T23:38:33.197Z,1.65
2023-03-11T23:41:01.402Z,2.33
2023-03-11T23:43:29.620Z,2.85
2023-03-11T23:45:57.915Z,1.92
2023-03-11T23:48:26.211Z,1.90
2023-03-11T23:50:54.612Z,2.97
2023-03-11T23:53:23.333Z,3.28
2023-03-11T23:55:53.387Z,4.03
2023-03-11T23:58:22.725Z,2.95
